sensor_id;sensor_type;location;lat;lon;timestamp;temperature;humidity
60313;DHT22;46158;52.850;6.970;2022-11-13T00:00:10;14.80;88.90
60313;DHT22;46158;52.850;6.970;2022-11-13T00:02:36;14.80;88.80
60313;DHT22;46158;52.850;6.970;2022-11-13T00:05:02;14.80;88.90
60313;DHT22;46158;52.850;6.970;2022-11-13T00:07:27;14.80;88.80
60313;DHT22;46158;52.850;6.970;2022-11-13T00:09:53;14.80;88.90
60313;DHT22;46158;52.850;6.970;2022-11-13T00:12:19;14.80;88.80
60313;DHT22;46158;52.850;6.970;2022-11-13T00:14:44;14.80;88.80
60313;DHT22;46158;52.850;6.970;2022-11-13T00:17:10;14.80;88.80
60313;DHT22;46158;52.850;6.970;2022-11-13T00:19:36;14.80;88.80
60313;DHT22;46158;52.850;6.970;2022-11-13T00:22:01;14.80;88.70
60313;DHT22;46158;52.850;6.970;2022-11-13T00:24:27;14.80;88.70
60313;DHT22;46158;52.850;6.970;2022-11-13T00:26:53;14.80;88.60
60313;DHT22;46158;52.850;6.970;2022-11-13T00:29:18;14.80;88.60
60313;DHT22;46158;52.850;6.970;2022-11-13T00:31:44;14.80;88.60
60313;DHT22;46158;52.850;6.970;2022-11-13T00:34:10;14.80;88.60
60313;DHT22;46158;52.850;6.970;2022-11-13T00:36:35;14.80;88.40
60313;DHT22;46158;52.850;6.970;2022-11-13T00:39:01;14.80;88.40
60313;DHT22;46158;52.850;6.970;2022-11-13T00:41:26;14.80;88.40
60313;DHT22;46158;52.850;6.970;2022-11-13T00:43:52;14.80;88.40
60313;DHT22;46158;52.850;6.970;2022-11-13T00:46:18;14.80;88.40
60313;DHT22;46158;52.850;6.970;2022-11-13T00:48:44;14.80;88.30
60313;DHT22;46158;52.850;6.970;2022-11-13T00:51:10;14.80;88.30
60313;DHT22;46158;52.850;6.970;2022-11-13T00:53:35;14.80;88.30
60313;DHT22;46158;52.850;6.970;2022-11-13T00:56:01;14.80;88.20
60313;DHT22;46158;52.850;6.970;2022-11-13T00:58:27;14.80;88.20
60313;DHT22;46158;52.850;6.970;2022-11-13T01:00:53;14.80;88.20
60313;DHT22;46158;52.850;6.970;2022-11-13T01:03:18;14.80;88.10
60313;DHT22;46158;52.850;6.970;2022-11-13T01:05:45;14.80;88.10
60313;DHT22;46158;52.850;6.970;2022-11-13T01:08:12;14.80;88.10
60313;DHT22;46158;52.850;6.970;2022-11-13T01:10:43;14.80;88.00
60313;DHT22;46158;52.850;6.970;2022-11-13T01:13:09;14.80;87.90
60313;DHT22;46158;52.850;6.970;2022-11-13T01:15:38;14.80;87.90
60313;DHT22;46158;52.850;6.970;2022-11-13T01:18:04;14.70;87.80
60313;DHT22;46158;52.850;6.970;2022-11-13T01:20:30;14.80;87.90
60313;DHT22;46158;52.850;6.970;2022-11-13T01:22:57;14.80;87.80
60313;DHT22;46158;52.850;6.970;2022-11-13T01:25:27;14.70;87.70
60313;DHT22;46158;52.850;6.970;2022-11-13T01:27:52;14.80;87.70
60313;DHT22;46158;52.850;6.970;2022-11-13T01:30:18;14.70;87.70
60313;DHT22;46158;52.850;6.970;2022-11-13T01:32:44;14.70;87.70
60313;DHT22;46158;52.850;6.970;2022-11-13T01:35:09;14.70;87.70
60313;DHT22;46158;52.850;6.970;2022-11-13T01:37:35;14.70;87.70
60313;DHT22;46158;52.850;6.970;2022-11-13T01:40:01;14.70;87.60
60313;DHT22;46158;52.850;6.970;2022-11-13T01:42:26;14.70;87.60
60313;DHT22;46158;52.850;6.970;2022-11-13T01:44:53;14.70;87.60
60313;DHT22;46158;52.850;6.970;2022-11-13T01:47:20;14.70;87.60
60313;DHT22;46158;52.850;6.970;2022-11-13T01:49:48;14.70;87.50
60313;DHT22;46158;52.850;6.970;2022-11-13T01:52:39;14.70;87.50
60313;DHT22;46158;52.850;6.970;2022-11-13T01:55:11;14.70;87.30
60313;DHT22;46158;52.850;6.970;2022-11-13T01:57:38;14.70;87.40
60313;DHT22;46158;52.850;6.970;2022-11-13T02:00:07;14.70;87.50
60313;DHT22;46158;52.850;6.970;2022-11-13T02:02:34;14.70;87.40
60313;DHT22;46158;52.850;6.970;2022-11-13T02:05:00;14.70;87.40
60313;DHT22;46158;52.850;6.970;2022-11-13T02:07:26;14.70;87.30
60313;DHT22;46158;52.850;6.970;2022-11-13T02:09:54;14.70;87.30
60313;DHT22;46158;52.850;6.970;2022-11-13T02:12:37;14.70;87.30
60313;DHT22;46158;52.850;6.970;2022-11-13T02:15:05;14.70;87.10
60313;DHT22;46158;52.850;6.970;2022-11-13T02:17:55;14.70;87.20
60313;DHT22;46158;52.850;6.970;2022-11-13T02:21:03;14.70;87.00
60313;DHT22;46158;52.850;6.970;2022-11-13T02:23:40;14.60;87.00
60313;DHT22;46158;52.850;6.970;2022-11-13T02:26:08;14.60;87.10
60313;DHT22;46158;52.850;6.970;2022-11-13T02:28:35;14.60;87.10
60313;DHT22;46158;52.850;6.970;2022-11-13T02:31:11;14.60;87.00
60313;DHT22;46158;52.850;6.970;2022-11-13T02:33:39;14.60;86.90
60313;DHT22;46158;52.850;6.970;2022-11-13T02:36:06;14.60;87.00
60313;DHT22;46158;52.850;6.970;2022-11-13T02:38:34;14.60;86.90
60313;DHT22;46158;52.850;6.970;2022-11-13T02:41:01;14.60;87.60
60313;DHT22;46158;52.850;6.970;2022-11-13T02:43:26;14.60;86.90
60313;DHT22;46158;52.850;6.970;2022-11-13T02:45:52;14.60;86.80
60313;DHT22;46158;52.850;6.970;2022-11-13T02:48:18;14.50;86.70
60313;DHT22;46158;52.850;6.970;2022-11-13T02:50:44;14.60;86.70
60313;DHT22;46158;52.850;6.970;2022-11-13T02:53:10;14.50;86.70
60313;DHT22;46158;52.850;6.970;2022-11-13T02:55:35;14.60;86.70
60313;DHT22;46158;52.850;6.970;2022-11-13T02:58:01;14.60;86.70
60313;DHT22;46158;52.850;6.970;2022-11-13T03:00:27;14.60;86.60
60313;DHT22;46158;52.850;6.970;2022-11-13T03:02:53;14.60;86.60
60313;DHT22;46158;52.850;6.970;2022-11-13T03:05:20;14.50;86.50
60313;DHT22;46158;52.850;6.970;2022-11-13T03:07:46;14.50;86.50
60313;DHT22;46158;52.850;6.970;2022-11-13T03:10:12;14.50;86.40
60313;DHT22;46158;52.850;6.970;2022-11-13T03:12:38;14.50;86.40
60313;DHT22;46158;52.850;6.970;2022-11-13T03:15:05;14.50;86.40
60313;DHT22;46158;52.850;6.970;2022-11-13T03:17:31;14.50;86.40
60313;DHT22;46158;52.850;6.970;2022-11-13T03:19:57;14.50;86.30
60313;DHT22;46158;52.850;6.970;2022-11-13T03:22:24;14.50;86.30
60313;DHT22;46158;52.850;6.970;2022-11-13T03:24:50;14.50;86.20
60313;DHT22;46158;52.850;6.970;2022-11-13T03:27:15;14.40;86.80
60313;DHT22;46158;52.850;6.970;2022-11-13T03:29:41;14.50;86.20
60313;DHT22;46158;52.850;6.970;2022-11-13T03:32:07;14.50;86.20
60313;DHT22;46158;52.850;6.970;2022-11-13T03:34:32;14.40;86.10
60313;DHT22;46158;52.850;6.970;2022-11-13T03:36:58;14.40;86.00
60313;DHT22;46158;52.850;6.970;2022-11-13T03:39:23;14.50;86.10
60313;DHT22;46158;52.850;6.970;2022-11-13T03:41:49;14.40;86.00
60313;DHT22;46158;52.850;6.970;2022-11-13T03:44:15;14.40;86.00
60313;DHT22;46158;52.850;6.970;2022-11-13T03:46:40;14.40;85.90
60313;DHT22;46158;52.850;6.970;2022-11-13T03:49:06;14.40;86.00
60313;DHT22;46158;52.850;6.970;2022-11-13T03:51:31;14.40;85.90
60313;DHT22;46158;52.850;6.970;2022-11-13T03:53:57;14.40;85.80
60313;DHT22;46158;52.850;6.970;2022-11-13T03:56:24;14.40;85.80
60313;DHT22;46158;52.850;6.970;2022-11-13T03:58:50;14.40;85.80
60313;DHT22;46158;52.850;6.970;2022-11-13T04:01:16;14.30;85.70
60313;DHT22;46158;52.850;6.970;2022-11-13T04:03:41;14.30;85.70
60313;DHT22;46158;52.850;6.970;2022-11-13T04:06:07;14.30;85.60
60313;DHT22;46158;52.850;6.970;2022-11-13T04:08:34;14.30;85.60
60313;DHT22;46158;52.850;6.970;2022-11-13T04:11:10;14.30;85.60
60313;DHT22;46158;52.850;6.970;2022-11-13T04:13:37;14.30;85.50
60313;DHT22;46158;52.850;6.970;2022-11-13T04:16:04;14.30;85.60
60313;DHT22;46158;52.850;6.970;2022-11-13T04:18:30;14.30;85.60
60313;DHT22;46158;52.850;6.970;2022-11-13T04:21:00;14.30;85.60
60313;DHT22;46158;52.850;6.970;2022-11-13T04:23:26;14.30;85.50
60313;DHT22;46158;52.850;6.970;2022-11-13T04:25:52;14.30;85.60
60313;DHT22;46158;52.850;6.970;2022-11-13T04:28:18;14.20;85.50
60313;DHT22;46158;52.850;6.970;2022-11-13T04:30:43;14.30;85.50
60313;DHT22;46158;52.850;6.970;2022-11-13T04:33:09;14.20;85.40
60313;DHT22;46158;52.850;6.970;2022-11-13T04:35:34;14.20;85.40
60313;DHT22;46158;52.850;6.970;2022-11-13T04:38:00;14.20;85.40
60313;DHT22;46158;52.850;6.970;2022-11-13T04:40:26;14.20;85.30
60313;DHT22;46158;52.850;6.970;2022-11-13T04:42:52;14.20;85.30
60313;DHT22;46158;52.850;6.970;2022-11-13T04:45:19;14.20;85.30
60313;DHT22;46158;52.850;6.970;2022-11-13T04:47:45;14.20;85.30
60313;DHT22;46158;52.850;6.970;2022-11-13T04:50:11;14.10;85.20
60313;DHT22;46158;52.850;6.970;2022-11-13T04:52:38;14.20;85.30
60313;DHT22;46158;52.850;6.970;2022-11-13T04:55:05;14.20;85.30
60313;DHT22;46158;52.850;6.970;2022-11-13T04:57:31;14.10;85.10
60313;DHT22;46158;52.850;6.970;2022-11-13T04:59:57;14.10;85.10
60313;DHT22;46158;52.850;6.970;2022-11-13T05:02:22;14.10;85.10
60313;DHT22;46158;52.850;6.970;2022-11-13T05:04:48;14.10;85.10
60313;DHT22;46158;52.850;6.970;2022-11-13T05:07:14;14.10;85.10
60313;DHT22;46158;52.850;6.970;2022-11-13T05:09:40;14.10;85.10
60313;DHT22;46158;52.850;6.970;2022-11-13T05:12:06;14.10;85.10
60313;DHT22;46158;52.850;6.970;2022-11-13T05:14:39;14.00;85.00
60313;DHT22;46158;52.850;6.970;2022-11-13T05:17:07;14.10;85.00
60313;DHT22;46158;52.850;6.970;2022-11-13T05:19:33;14.00;85.00
60313;DHT22;46158;52.850;6.970;2022-11-13T05:21:59;14.00;85.00
60313;DHT22;46158;52.850;6.970;2022-11-13T05:24:25;14.00;84.90
60313;DHT22;46158;52.850;6.970;2022-11-13T05:26:51;14.00;84.90
60313;DHT22;46158;52.850;6.970;2022-11-13T05:29:17;14.00;85.00
60313;DHT22;46158;52.850;6.970;2022-11-13T05:31:43;14.00;84.90
60313;DHT22;46158;52.850;6.970;2022-11-13T05:34:09;14.00;84.90
60313;DHT22;46158;52.850;6.970;2022-11-13T05:36:35;14.00;84.90
60313;DHT22;46158;52.850;6.970;2022-11-13T05:39:00;13.90;84.80
60313;DHT22;46158;52.850;6.970;2022-11-13T05:41:26;14.00;84.80
60313;DHT22;46158;52.850;6.970;2022-11-13T05:43:52;13.90;84.80
60313;DHT22;46158;52.850;6.970;2022-11-13T05:46:21;13.90;84.80
60313;DHT22;46158;52.850;6.970;2022-11-13T05:48:51;13.90;84.80
60313;DHT22;46158;52.850;6.970;2022-11-13T05:51:20;13.90;84.80
60313;DHT22;46158;52.850;6.970;2022-11-13T05:53:46;13.90;84.70
60313;DHT22;46158;52.850;6.970;2022-11-13T05:56:18;13.90;84.80
60313;DHT22;46158;52.850;6.970;2022-11-13T05:58:44;13.90;84.80
60313;DHT22;46158;52.850;6.970;2022-11-13T06:01:14;13.90;84.80
60313;DHT22;46158;52.850;6.970;2022-11-13T06:03:40;13.90;84.80
60313;DHT22;46158;52.850;6.970;2022-11-13T06:06:08;13.80;84.70
60313;DHT22;46158;52.850;6.970;2022-11-13T06:08:34;13.80;84.70
60313;DHT22;46158;52.850;6.970;2022-11-13T06:11:03;13.80;84.70
60313;DHT22;46158;52.850;6.970;2022-11-13T06:13:29;13.80;84.60
60313;DHT22;46158;52.850;6.970;2022-11-13T06:16:00;13.80;84.60
60313;DHT22;46158;52.850;6.970;2022-11-13T06:18:26;13.80;84.60
60313;DHT22;46158;52.850;6.970;2022-11-13T06:20:52;13.80;84.60
60313;DHT22;46158;52.850;6.970;2022-11-13T06:23:17;13.80;84.60
60313;DHT22;46158;52.850;6.970;2022-11-13T06:25:43;13.70;84.50
60313;DHT22;46158;52.850;6.970;2022-11-13T06:28:08;13.70;84.50
60313;DHT22;46158;52.850;6.970;2022-11-13T06:30:34;13.70;84.50
60313;DHT22;46158;52.850;6.970;2022-11-13T06:33:00;13.70;84.50
60313;DHT22;46158;52.850;6.970;2022-11-13T06:35:25;13.70;84.50
60313;DHT22;46158;52.850;6.970;2022-11-13T06:37:53;13.70;84.50
60313;DHT22;46158;52.850;6.970;2022-11-13T06:40:19;13.70;84.50
60313;DHT22;46158;52.850;6.970;2022-11-13T06:42:44;13.70;84.50
60313;DHT22;46158;52.850;6.970;2022-11-13T06:45:10;13.70;84.50
60313;DHT22;46158;52.850;6.970;2022-11-13T06:47:36;13.70;84.50
60313;DHT22;46158;52.850;6.970;2022-11-13T06:50:01;13.70;84.50
60313;DHT22;46158;52.850;6.970;2022-11-13T06:52:27;13.70;84.40
60313;DHT22;46158;52.850;6.970;2022-11-13T06:54:53;13.70;84.40
60313;DHT22;46158;52.850;6.970;2022-11-13T06:57:18;13.70;84.40
60313;DHT22;46158;52.850;6.970;2022-11-13T06:59:44;13.60;84.30
60313;DHT22;46158;52.850;6.970;2022-11-13T07:02:13;13.60;84.50
60313;DHT22;46158;52.850;6.970;2022-11-13T07:04:39;13.70;84.70
60313;DHT22;46158;52.850;6.970;2022-11-13T07:07:04;13.70;84.90
60313;DHT22;46158;52.850;6.970;2022-11-13T07:09:30;13.70;85.00
60313;DHT22;46158;52.850;6.970;2022-11-13T07:11:56;13.80;85.30
60313;DHT22;46158;52.850;6.970;2022-11-13T07:14:21;13.80;85.50
60313;DHT22;46158;52.850;6.970;2022-11-13T07:16:47;13.70;85.60
60313;DHT22;46158;52.850;6.970;2022-11-13T07:19:15;13.80;85.80
60313;DHT22;46158;52.850;6.970;2022-11-13T07:21:41;13.80;85.90
60313;DHT22;46158;52.850;6.970;2022-11-13T07:24:07;13.80;86.10
60313;DHT22;46158;52.850;6.970;2022-11-13T07:26:32;13.90;86.30
60313;DHT22;46158;52.850;6.970;2022-11-13T07:28:58;13.90;86.50
60313;DHT22;46158;52.850;6.970;2022-11-13T07:31:24;13.90;86.60
60313;DHT22;46158;52.850;6.970;2022-11-13T07:33:50;13.90;86.60
60313;DHT22;46158;52.850;6.970;2022-11-13T07:36:17;14.00;86.70
60313;DHT22;46158;52.850;6.970;2022-11-13T07:38:43;14.00;86.80
60313;DHT22;46158;52.850;6.970;2022-11-13T07:41:09;14.10;86.80
60313;DHT22;46158;52.850;6.970;2022-11-13T07:43:34;14.10;86.20
60313;DHT22;46158;52.850;6.970;2022-11-13T07:46:00;14.10;85.60
60313;DHT22;46158;52.850;6.970;2022-11-13T07:48:26;14.10;85.40
60313;DHT22;46158;52.850;6.970;2022-11-13T07:50:52;14.10;85.50
60313;DHT22;46158;52.850;6.970;2022-11-13T07:53:19;14.10;85.80
60313;DHT22;46158;52.850;6.970;2022-11-13T07:55:46;14.10;85.50
60313;DHT22;46158;52.850;6.970;2022-11-13T07:58:12;14.10;85.70
60313;DHT22;46158;52.850;6.970;2022-11-13T08:00:38;14.10;85.80
60313;DHT22;46158;52.850;6.970;2022-11-13T08:03:06;14.10;85.90
60313;DHT22;46158;52.850;6.970;2022-11-13T08:05:32;14.10;86.00
60313;DHT22;46158;52.850;6.970;2022-11-13T08:07:57;14.10;86.00
60313;DHT22;46158;52.850;6.970;2022-11-13T08:10:23;14.10;85.90
60313;DHT22;46158;52.850;6.970;2022-11-13T08:13:00;14.10;85.80
60313;DHT22;46158;52.850;6.970;2022-11-13T08:15:27;14.10;86.20
60313;DHT22;46158;52.850;6.970;2022-11-13T08:17:57;14.10;85.70
60313;DHT22;46158;52.850;6.970;2022-11-13T08:20:24;14.10;85.70
60313;DHT22;46158;52.850;6.970;2022-11-13T08:22:51;14.10;85.80
60313;DHT22;46158;52.850;6.970;2022-11-13T08:25:17;14.10;85.70
60313;DHT22;46158;52.850;6.970;2022-11-13T08:27:42;14.10;85.50
60313;DHT22;46158;52.850;6.970;2022-11-13T08:30:08;14.10;85.40
60313;DHT22;46158;52.850;6.970;2022-11-13T08:32:34;14.10;85.30
60313;DHT22;46158;52.850;6.970;2022-11-13T08:35:00;14.10;85.30
60313;DHT22;46158;52.850;6.970;2022-11-13T08:37:25;14.00;85.10
60313;DHT22;46158;52.850;6.970;2022-11-13T08:39:51;14.00;85.10
60313;DHT22;46158;52.850;6.970;2022-11-13T08:42:16;14.00;85.10
60313;DHT22;46158;52.850;6.970;2022-11-13T08:44:42;14.00;85.10
60313;DHT22;46158;52.850;6.970;2022-11-13T08:47:08;14.00;85.20
60313;DHT22;46158;52.850;6.970;2022-11-13T08:49:34;14.00;85.20
60313;DHT22;46158;52.850;6.970;2022-11-13T08:51:59;14.00;85.30
60313;DHT22;46158;52.850;6.970;2022-11-13T08:54:25;14.00;85.30
60313;DHT22;46158;52.850;6.970;2022-11-13T08:56:51;14.00;85.30
60313;DHT22;46158;52.850;6.970;2022-11-13T08:59:17;14.00;85.40
60313;DHT22;46158;52.850;6.970;2022-11-13T09:01:42;14.00;85.40
60313;DHT22;46158;52.850;6.970;2022-11-13T09:04:08;13.90;85.40
60313;DHT22;46158;52.850;6.970;2022-11-13T09:06:33;13.90;85.40
60313;DHT22;46158;52.850;6.970;2022-11-13T09:08:59;13.90;85.40
60313;DHT22;46158;52.850;6.970;2022-11-13T09:11:25;13.90;85.40
60313;DHT22;46158;52.850;6.970;2022-11-13T09:13:54;13.90;85.40
60313;DHT22;46158;52.850;6.970;2022-11-13T09:16:20;13.90;85.40
60313;DHT22;46158;52.850;6.970;2022-11-13T09:18:49;13.90;85.40
60313;DHT22;46158;52.850;6.970;2022-11-13T09:21:15;13.90;85.40
60313;DHT22;46158;52.850;6.970;2022-11-13T09:23:40;13.90;85.50
60313;DHT22;46158;52.850;6.970;2022-11-13T09:26:06;13.90;85.50
60313;DHT22;46158;52.850;6.970;2022-11-13T09:28:32;13.90;85.60
60313;DHT22;46158;52.850;6.970;2022-11-13T09:30:58;13.90;85.60
60313;DHT22;46158;52.850;6.970;2022-11-13T09:33:23;13.90;85.60
60313;DHT22;46158;52.850;6.970;2022-11-13T09:35:49;13.90;85.70
60313;DHT22;46158;52.850;6.970;2022-11-13T09:38:15;13.90;85.70
60313;DHT22;46158;52.850;6.970;2022-11-13T09:43:48;13.90;85.70
60313;DHT22;46158;52.850;6.970;2022-11-13T09:51:51;13.90;85.80
60313;DHT22;46158;52.850;6.970;2022-11-13T09:54:18;13.90;85.80
60313;DHT22;46158;52.850;6.970;2022-11-13T09:59:46;13.90;85.70
60313;DHT22;46158;52.850;6.970;2022-11-13T10:05:27;13.90;85.70
60313;DHT22;46158;52.850;6.970;2022-11-13T10:08:06;13.80;85.70
60313;DHT22;46158;52.850;6.970;2022-11-13T10:13:32;13.80;85.70
60313;DHT22;46158;52.850;6.970;2022-11-13T10:16:17;13.80;85.70
60313;DHT22;46158;52.850;6.970;2022-11-13T10:18:47;13.80;85.70
60313;DHT22;46158;52.850;6.970;2022-11-13T10:23:54;13.80;85.70
60313;DHT22;46158;52.850;6.970;2022-11-13T10:26:22;13.80;85.70
60313;DHT22;46158;52.850;6.970;2022-11-13T10:28:57;13.80;85.80
60313;DHT22;46158;52.850;6.970;2022-11-13T10:31:25;13.80;85.70
60313;DHT22;46158;52.850;6.970;2022-11-13T10:33:53;13.80;85.90
60313;DHT22;46158;52.850;6.970;2022-11-13T10:39:10;13.90;85.80
60313;DHT22;46158;52.850;6.970;2022-11-13T10:41:47;13.80;85.90
60313;DHT22;46158;52.850;6.970;2022-11-13T10:44:29;13.80;85.80
60313;DHT22;46158;52.850;6.970;2022-11-13T10:47:15;13.90;85.90
60313;DHT22;46158;52.850;6.970;2022-11-13T10:49:41;13.80;85.90
60313;DHT22;46158;52.850;6.970;2022-11-13T10:52:22;13.80;86.00
60313;DHT22;46158;52.850;6.970;2022-11-13T10:54:48;13.90;86.00
60313;DHT22;46158;52.850;6.970;2022-11-13T10:57:31;13.80;86.00
60313;DHT22;46158;52.850;6.970;2022-11-13T10:59:59;13.80;85.90
60313;DHT22;46158;52.850;6.970;2022-11-13T11:02:26;13.80;86.10
60313;DHT22;46158;52.850;6.970;2022-11-13T11:05:05;13.80;86.10
60313;DHT22;46158;52.850;6.970;2022-11-13T11:07:39;13.90;86.30
60313;DHT22;46158;52.850;6.970;2022-11-13T11:10:32;13.90;86.10
60313;DHT22;46158;52.850;6.970;2022-11-13T11:13:09;13.90;86.10
60313;DHT22;46158;52.850;6.970;2022-11-13T11:15:42;13.90;86.10
60313;DHT22;46158;52.850;6.970;2022-11-13T11:18:24;13.90;86.20
60313;DHT22;46158;52.850;6.970;2022-11-13T11:20:57;13.90;86.10
60313;DHT22;46158;52.850;6.970;2022-11-13T11:26:17;13.90;86.10
60313;DHT22;46158;52.850;6.970;2022-11-13T11:28:46;13.90;86.10
60313;DHT22;46158;52.850;6.970;2022-11-13T11:33:58;13.90;86.30
60313;DHT22;46158;52.850;6.970;2022-11-13T11:36:34;13.90;86.20
60313;DHT22;46158;52.850;6.970;2022-11-13T11:39:33;13.90;86.30
60313;DHT22;46158;52.850;6.970;2022-11-13T11:47:26;13.90;86.20
60313;DHT22;46158;52.850;6.970;2022-11-13T11:49:52;13.90;86.30
60313;DHT22;46158;52.850;6.970;2022-11-13T11:52:21;13.90;86.40
60313;DHT22;46158;52.850;6.970;2022-11-13T11:57:37;14.00;86.40
60313;DHT22;46158;52.850;6.970;2022-11-13T12:00:12;13.90;86.30
60313;DHT22;46158;52.850;6.970;2022-11-13T12:05:47;14.00;86.40
60313;DHT22;46158;52.850;6.970;2022-11-13T12:08:21;14.00;86.40
60313;DHT22;46158;52.850;6.970;2022-11-13T12:16:38;14.00;86.40
60313;DHT22;46158;52.850;6.970;2022-11-13T12:19:42;14.00;86.50
60313;DHT22;46158;52.850;6.970;2022-11-13T12:22:23;14.00;86.40
60313;DHT22;46158;52.850;6.970;2022-11-13T12:30:50;14.00;86.50
60313;DHT22;46158;52.850;6.970;2022-11-13T12:35:52;14.00;86.60
60313;DHT22;46158;52.850;6.970;2022-11-13T12:38:45;14.00;86.60
60313;DHT22;46158;52.850;6.970;2022-11-13T12:44:26;14.00;86.60
60313;DHT22;46158;52.850;6.970;2022-11-13T12:46:45;14.00;86.70
60313;DHT22;46158;52.850;6.970;2022-11-13T12:49:33;14.10;86.70
60313;DHT22;46158;52.850;6.970;2022-11-13T12:52:02;14.10;86.60
60313;DHT22;46158;52.850;6.970;2022-11-13T12:54:32;14.10;86.80
60313;DHT22;46158;52.850;6.970;2022-11-13T12:59:47;14.10;86.70
60313;DHT22;46158;52.850;6.970;2022-11-13T13:10:35;14.10;86.70
60313;DHT22;46158;52.850;6.970;2022-11-13T13:15:41;14.10;87.50
60313;DHT22;46158;52.850;6.970;2022-11-13T13:23:34;14.20;86.80
60313;DHT22;46158;52.850;6.970;2022-11-13T13:26:14;14.20;87.00
60313;DHT22;46158;52.850;6.970;2022-11-13T13:28:48;14.20;87.00
60313;DHT22;46158;52.850;6.970;2022-11-13T13:36:53;14.20;87.10
60313;DHT22;46158;52.850;6.970;2022-11-13T13:42:21;14.20;87.90
60313;DHT22;46158;52.850;6.970;2022-11-13T13:47:37;14.30;87.20
60313;DHT22;46158;52.850;6.970;2022-11-13T13:50:06;14.30;87.20
60313;DHT22;46158;52.850;6.970;2022-11-13T13:52:34;14.30;87.20
60313;DHT22;46158;52.850;6.970;2022-11-13T13:55:05;14.30;87.20
60313;DHT22;46158;52.850;6.970;2022-11-13T13:57:32;14.30;87.10
60313;DHT22;46158;52.850;6.970;2022-11-13T13:59:59;14.30;87.20
60313;DHT22;46158;52.850;6.970;2022-11-13T14:02:25;14.30;87.20
60313;DHT22;46158;52.850;6.970;2022-11-13T14:04:53;14.40;87.30
60313;DHT22;46158;52.850;6.970;2022-11-13T14:09:45;14.40;87.40
60313;DHT22;46158;52.850;6.970;2022-11-13T14:12:19;14.40;87.50
60313;DHT22;46158;52.850;6.970;2022-11-13T14:14:45;14.40;87.50
60313;DHT22;46158;52.850;6.970;2022-11-13T14:17:11;14.50;87.60
60313;DHT22;46158;52.850;6.970;2022-11-13T14:19:37;14.40;87.60
60313;DHT22;46158;52.850;6.970;2022-11-13T14:22:04;14.50;87.70
60313;DHT22;46158;52.850;6.970;2022-11-13T14:24:50;14.50;87.70
60313;DHT22;46158;52.850;6.970;2022-11-13T14:27:22;14.50;87.80
60313;DHT22;46158;52.850;6.970;2022-11-13T14:30:00;14.50;87.80
60313;DHT22;46158;52.850;6.970;2022-11-13T14:32:30;14.50;87.90
60313;DHT22;46158;52.850;6.970;2022-11-13T14:34:59;14.60;88.00
60313;DHT22;46158;52.850;6.970;2022-11-13T14:37:35;14.60;87.90
60313;DHT22;46158;52.850;6.970;2022-11-13T14:40:23;14.60;88.00
60313;DHT22;46158;52.850;6.970;2022-11-13T14:42:53;14.60;88.00
60313;DHT22;46158;52.850;6.970;2022-11-13T14:45:24;14.60;88.00
60313;DHT22;46158;52.850;6.970;2022-11-13T14:51:18;14.60;88.00
60313;DHT22;46158;52.850;6.970;2022-11-13T14:53:40;14.70;88.00
60313;DHT22;46158;52.850;6.970;2022-11-13T14:56:10;14.70;88.10
60313;DHT22;46158;52.850;6.970;2022-11-13T14:58:44;14.70;88.00
60313;DHT22;46158;52.850;6.970;2022-11-13T15:01:16;14.70;88.00
60313;DHT22;46158;52.850;6.970;2022-11-13T15:03:43;14.70;88.10
60313;DHT22;46158;52.850;6.970;2022-11-13T15:06:20;14.70;88.10
60313;DHT22;46158;52.850;6.970;2022-11-13T15:08:47;14.70;88.10
60313;DHT22;46158;52.850;6.970;2022-11-13T15:11:15;14.70;88.10
60313;DHT22;46158;52.850;6.970;2022-11-13T15:13:42;14.80;88.20
60313;DHT22;46158;52.850;6.970;2022-11-13T15:16:28;14.80;88.20
60313;DHT22;46158;52.850;6.970;2022-11-13T15:19:02;14.80;88.10
60313;DHT22;46158;52.850;6.970;2022-11-13T15:21:29;14.80;88.20
60313;DHT22;46158;52.850;6.970;2022-11-13T15:23:55;14.80;88.30
60313;DHT22;46158;52.850;6.970;2022-11-13T15:26:21;14.80;88.30
60313;DHT22;46158;52.850;6.970;2022-11-13T15:28:47;14.80;88.20
60313;DHT22;46158;52.850;6.970;2022-11-13T15:31:28;14.80;88.30
60313;DHT22;46158;52.850;6.970;2022-11-13T15:33:54;14.80;88.20
60313;DHT22;46158;52.850;6.970;2022-11-13T15:36:20;14.80;88.30
60313;DHT22;46158;52.850;6.970;2022-11-13T15:38:46;14.80;88.30
60313;DHT22;46158;52.850;6.970;2022-11-13T15:41:17;14.90;88.30
60313;DHT22;46158;52.850;6.970;2022-11-13T15:43:53;14.90;88.30
60313;DHT22;46158;52.850;6.970;2022-11-13T15:46:19;14.90;88.30
60313;DHT22;46158;52.850;6.970;2022-11-13T15:48:46;14.90;88.30
60313;DHT22;46158;52.850;6.970;2022-11-13T15:51:31;14.90;88.30
60313;DHT22;46158;52.850;6.970;2022-11-13T15:54:01;14.90;88.90
60313;DHT22;46158;52.850;6.970;2022-11-13T15:56:28;14.90;88.30
60313;DHT22;46158;52.850;6.970;2022-11-13T15:58:55;14.90;88.30
60313;DHT22;46158;52.850;6.970;2022-11-13T16:01:20;14.90;88.20
60313;DHT22;46158;52.850;6.970;2022-11-13T16:03:47;14.90;88.20
60313;DHT22;46158;52.850;6.970;2022-11-13T16:06:16;14.90;88.20
60313;DHT22;46158;52.850;6.970;2022-11-13T16:08:42;14.90;88.20
60313;DHT22;46158;52.850;6.970;2022-11-13T16:11:17;15.00;88.20
60313;DHT22;46158;52.850;6.970;2022-11-13T16:13:44;15.00;88.10
60313;DHT22;46158;52.850;6.970;2022-11-13T16:16:25;15.00;88.20
60313;DHT22;46158;52.850;6.970;2022-11-13T16:18:52;15.00;88.10
60313;DHT22;46158;52.850;6.970;2022-11-13T16:21:19;15.00;88.10
60313;DHT22;46158;52.850;6.970;2022-11-13T16:23:45;15.00;88.60
60313;DHT22;46158;52.850;6.970;2022-11-13T16:26:14;15.00;87.70
60313;DHT22;46158;52.850;6.970;2022-11-13T16:28:40;15.00;87.60
60313;DHT22;46158;52.850;6.970;2022-11-13T16:31:06;15.00;87.60
60313;DHT22;46158;52.850;6.970;2022-11-13T16:33:31;15.00;87.60
60313;DHT22;46158;52.850;6.970;2022-11-13T16:35:57;15.00;87.60
60313;DHT22;46158;52.850;6.970;2022-11-13T16:38:22;15.00;87.60
60313;DHT22;46158;52.850;6.970;2022-11-13T16:40:48;15.00;87.60
60313;DHT22;46158;52.850;6.970;2022-11-13T16:43:14;15.00;87.60
60313;DHT22;46158;52.850;6.970;2022-11-13T16:45:39;15.00;87.60
60313;DHT22;46158;52.850;6.970;2022-11-13T16:48:18;15.00;87.60
60313;DHT22;46158;52.850;6.970;2022-11-13T16:50:47;15.10;87.60
60313;DHT22;46158;52.850;6.970;2022-11-13T16:53:12;15.00;87.60
60313;DHT22;46158;52.850;6.970;2022-11-13T16:55:38;15.00;87.60
60313;DHT22;46158;52.850;6.970;2022-11-13T16:58:04;15.00;87.60
60313;DHT22;46158;52.850;6.970;2022-11-13T17:00:30;15.10;87.60
60313;DHT22;46158;52.850;6.970;2022-11-13T17:02:55;15.00;87.70
60313;DHT22;46158;52.850;6.970;2022-11-13T17:05:22;15.10;87.70
60313;DHT22;46158;52.850;6.970;2022-11-13T17:07:49;15.10;87.80
60313;DHT22;46158;52.850;6.970;2022-11-13T17:10:19;15.10;87.80